<?xml version="1.0" encoding="utf-8"?>
<gpx xmlns:xsi="http://www.w3.org/2001/XMLSchema-instance" xmlns:xsd="http://www.w3.org/2001/XMLSchema" version="1.1" creator="Shapelink.com" xmlns="http://www.topografix.com/GPX/1/1" xmlns:gpxtpx="http://www.garmin.com/xmlschemas/TrackPointExtension/v1">
  <metadata>
    <name>Löpning 7.99 km, 2017-12-31</name>
    <desc></desc>
    <author><name>Bengt-Åke Forslund</name></author> 
    <time>2017-12-31T12:00:51Z</time>
  </metadata>
  <trk>
    <name>Löpning 7.99 km, 2017-12-31</name>
    <trkseg>
      <trkpt lat="59.8499299" lon="17.6016067">
        <ele>23.6896</ele>
        <time>2017-12-31T12:00:51Z</time>
      </trkpt>
      <trkpt lat="59.8499797" lon="17.6014383">
        <ele>25.1317</ele>
        <time>2017-12-31T12:00:56Z</time>
      </trkpt>
      <trkpt lat="59.8500479" lon="17.6011901">
        <ele>27.0543</ele>
        <time>2017-12-31T12:01:03Z</time>
      </trkpt>
      <trkpt lat="59.8501137" lon="17.6010006">
        <ele>28.9769</ele>
        <time>2017-12-31T12:01:09Z</time>
      </trkpt>
      <trkpt lat="59.8501612" lon="17.6008186">
        <ele>29.9381</ele>
        <time>2017-12-31T12:01:14Z</time>
      </trkpt>
      <trkpt lat="59.8502359" lon="17.6006137">
        <ele>30.4188</ele>
        <time>2017-12-31T12:01:20Z</time>
      </trkpt>
      <trkpt lat="59.8502446" lon="17.6005753">
        <ele>30.4188</ele>
        <time>2017-12-31T12:01:21Z</time>
      </trkpt>
      <trkpt lat="59.8503096" lon="17.6002998">
        <ele>29.9381</ele>
        <time>2017-12-31T12:01:28Z</time>
      </trkpt>
      <trkpt lat="59.8503815" lon="17.6000433">
        <ele>30.8995</ele>
        <time>2017-12-31T12:01:35Z</time>
      </trkpt>
      <trkpt lat="59.8504401" lon="17.5997935">
        <ele>32.3416</ele>
        <time>2017-12-31T12:01:42Z</time>
      </trkpt>
      <trkpt lat="59.8505043" lon="17.5995465">
        <ele>32.3416</ele>
        <time>2017-12-31T12:01:49Z</time>
      </trkpt>
      <trkpt lat="59.8505624" lon="17.5993419">
        <ele>32.3416</ele>
        <time>2017-12-31T12:01:55Z</time>
      </trkpt>
      <trkpt lat="59.8506078" lon="17.5991105">
        <ele>31.8607</ele>
        <time>2017-12-31T12:02:01Z</time>
      </trkpt>
      <trkpt lat="59.8506564" lon="17.5988815">
        <ele>31.8607</ele>
        <time>2017-12-31T12:02:07Z</time>
      </trkpt>
      <trkpt lat="59.8506973" lon="17.5986451">
        <ele>31.3801</ele>
        <time>2017-12-31T12:02:13Z</time>
      </trkpt>
      <trkpt lat="59.8507166" lon="17.5985296">
        <ele>30.8995</ele>
        <time>2017-12-31T12:02:16Z</time>
      </trkpt>
      <trkpt lat="59.8507479" lon="17.5982881">
        <ele>30.8995</ele>
        <time>2017-12-31T12:02:22Z</time>
      </trkpt>
      <trkpt lat="59.8507649" lon="17.598165">
        <ele>31.3801</ele>
        <time>2017-12-31T12:02:25Z</time>
      </trkpt>
      <trkpt lat="59.8507441" lon="17.5979972">
        <ele>30.4188</ele>
        <time>2017-12-31T12:02:29Z</time>
      </trkpt>
      <trkpt lat="59.8507342" lon="17.5977319">
        <ele>30.8995</ele>
        <time>2017-12-31T12:02:35Z</time>
      </trkpt>
      <trkpt lat="59.8507618" lon="17.5975152">
        <ele>30.8995</ele>
        <time>2017-12-31T12:02:41Z</time>
      </trkpt>
      <trkpt lat="59.8507964" lon="17.5972895">
        <ele>30.8995</ele>
        <time>2017-12-31T12:02:47Z</time>
      </trkpt>
      <trkpt lat="59.8508335" lon="17.5970575">
        <ele>29.9381</ele>
        <time>2017-12-31T12:02:53Z</time>
      </trkpt>
      <trkpt lat="59.8508395" lon="17.596826">
        <ele>29.4575</ele>
        <time>2017-12-31T12:02:58Z</time>
      </trkpt>
      <trkpt lat="59.8508509" lon="17.5966085">
        <ele>29.4575</ele>
        <time>2017-12-31T12:03:03Z</time>
      </trkpt>
      <trkpt lat="59.8508794" lon="17.5963714">
        <ele>27.5349</ele>
        <time>2017-12-31T12:03:09Z</time>
      </trkpt>
      <trkpt lat="59.8508826" lon="17.5962778">
        <ele>27.5349</ele>
        <time>2017-12-31T12:03:11Z</time>
      </trkpt>
      <trkpt lat="59.8509005" lon="17.5959977">
        <ele>27.5349</ele>
        <time>2017-12-31T12:03:17Z</time>
      </trkpt>
      <trkpt lat="59.8509218" lon="17.5957003">
        <ele>28.9769</ele>
        <time>2017-12-31T12:03:23Z</time>
      </trkpt>
      <trkpt lat="59.8509358" lon="17.5955054">
        <ele>28.4962</ele>
        <time>2017-12-31T12:03:27Z</time>
      </trkpt>
      <trkpt lat="59.8509706" lon="17.5952279">
        <ele>28.9769</ele>
        <time>2017-12-31T12:03:33Z</time>
      </trkpt>
      <trkpt lat="59.8510077" lon="17.5949563">
        <ele>29.9381</ele>
        <time>2017-12-31T12:03:39Z</time>
      </trkpt>
      <trkpt lat="59.8510429" lon="17.5947442">
        <ele>30.4188</ele>
        <time>2017-12-31T12:03:44Z</time>
      </trkpt>
      <trkpt lat="59.8510843" lon="17.5945098">
        <ele>30.4188</ele>
        <time>2017-12-31T12:03:50Z</time>
      </trkpt>
      <trkpt lat="59.8511181" lon="17.5942403">
        <ele>30.8995</ele>
        <time>2017-12-31T12:03:56Z</time>
      </trkpt>
      <trkpt lat="59.851153" lon="17.5939544">
        <ele>30.8995</ele>
        <time>2017-12-31T12:04:02Z</time>
      </trkpt>
      <trkpt lat="59.851174" lon="17.593717">
        <ele>30.8995</ele>
        <time>2017-12-31T12:04:07Z</time>
      </trkpt>
      <trkpt lat="59.8512155" lon="17.5934577">
        <ele>30.8995</ele>
        <time>2017-12-31T12:04:13Z</time>
      </trkpt>
      <trkpt lat="59.8512588" lon="17.5932548">
        <ele>30.8995</ele>
        <time>2017-12-31T12:04:18Z</time>
      </trkpt>
      <trkpt lat="59.8513643" lon="17.5930059">
        <ele>30.8995</ele>
        <time>2017-12-31T12:04:25Z</time>
      </trkpt>
      <trkpt lat="59.8514248" lon="17.5927026">
        <ele>30.4188</ele>
        <time>2017-12-31T12:04:32Z</time>
      </trkpt>
      <trkpt lat="59.8514885" lon="17.5924183">
        <ele>30.8995</ele>
        <time>2017-12-31T12:04:39Z</time>
      </trkpt>
      <trkpt lat="59.8515357" lon="17.592159">
        <ele>30.8995</ele>
        <time>2017-12-31T12:04:45Z</time>
      </trkpt>
      <trkpt lat="59.8515775" lon="17.5918858">
        <ele>28.9769</ele>
        <time>2017-12-31T12:04:51Z</time>
      </trkpt>
      <trkpt lat="59.8516323" lon="17.591638">
        <ele>28.4962</ele>
        <time>2017-12-31T12:04:57Z</time>
      </trkpt>
      <trkpt lat="59.8517085" lon="17.591279">
        <ele>27.0543</ele>
        <time>2017-12-31T12:05:05Z</time>
      </trkpt>
      <trkpt lat="59.851792" lon="17.5909351">
        <ele>26.0929</ele>
        <time>2017-12-31T12:05:13Z</time>
      </trkpt>
      <trkpt lat="59.8518488" lon="17.5906795">
        <ele>25.6123</ele>
        <time>2017-12-31T12:05:19Z</time>
      </trkpt>
      <trkpt lat="59.8519167" lon="17.5904239">
        <ele>25.1317</ele>
        <time>2017-12-31T12:05:25Z</time>
      </trkpt>
      <trkpt lat="59.8519625" lon="17.5902119">
        <ele>23.6896</ele>
        <time>2017-12-31T12:05:30Z</time>
      </trkpt>
      <trkpt lat="59.8520469" lon="17.5898179">
        <ele>21.2864</ele>
        <time>2017-12-31T12:05:39Z</time>
      </trkpt>
      <trkpt lat="59.8521076" lon="17.5895609">
        <ele>20.8057</ele>
        <time>2017-12-31T12:05:45Z</time>
      </trkpt>
      <trkpt lat="59.8521444" lon="17.5892934">
        <ele>21.767</ele>
        <time>2017-12-31T12:05:51Z</time>
      </trkpt>
      <trkpt lat="59.8521911" lon="17.5889724">
        <ele>21.2864</ele>
        <time>2017-12-31T12:05:58Z</time>
      </trkpt>
      <trkpt lat="59.8522117" lon="17.588693">
        <ele>19.8444</ele>
        <time>2017-12-31T12:06:04Z</time>
      </trkpt>
      <trkpt lat="59.852219" lon="17.5883627">
        <ele>18.8831</ele>
        <time>2017-12-31T12:06:11Z</time>
      </trkpt>
      <trkpt lat="59.8521972" lon="17.5879917">
        <ele>17.9218</ele>
        <time>2017-12-31T12:06:19Z</time>
      </trkpt>
      <trkpt lat="59.8521555" lon="17.587673">
        <ele>18.8831</ele>
        <time>2017-12-31T12:06:26Z</time>
      </trkpt>
      <trkpt lat="59.8521051" lon="17.5873474">
        <ele>18.8831</ele>
        <time>2017-12-31T12:06:33Z</time>
      </trkpt>
      <trkpt lat="59.8520659" lon="17.5870357">
        <ele>19.3638</ele>
        <time>2017-12-31T12:06:40Z</time>
      </trkpt>
      <trkpt lat="59.8520706" lon="17.5869878">
        <ele>19.8444</ele>
        <time>2017-12-31T12:06:41Z</time>
      </trkpt>
      <trkpt lat="59.852024" lon="17.5866678">
        <ele>19.8444</ele>
        <time>2017-12-31T12:06:48Z</time>
      </trkpt>
      <trkpt lat="59.852064" lon="17.5864568">
        <ele>19.8444</ele>
        <time>2017-12-31T12:06:53Z</time>
      </trkpt>
      <trkpt lat="59.8520887" lon="17.5863781">
        <ele>19.8444</ele>
        <time>2017-12-31T12:06:55Z</time>
      </trkpt>
      <trkpt lat="59.8520555" lon="17.5862942">
        <ele>19.8444</ele>
        <time>2017-12-31T12:06:59Z</time>
      </trkpt>
      <trkpt lat="59.8519666" lon="17.586229">
        <ele>17.9218</ele>
        <time>2017-12-31T12:07:04Z</time>
      </trkpt>
      <trkpt lat="59.8520208" lon="17.5860772">
        <ele>17.4412</ele>
        <time>2017-12-31T12:07:08Z</time>
      </trkpt>
      <trkpt lat="59.8520683" lon="17.5859756">
        <ele>18.4023</ele>
        <time>2017-12-31T12:07:11Z</time>
      </trkpt>
      <trkpt lat="59.8521143" lon="17.585942">
        <ele>18.8831</ele>
        <time>2017-12-31T12:07:16Z</time>
      </trkpt>
      <trkpt lat="59.852098" lon="17.5859669">
        <ele>18.4023</ele>
        <time>2017-12-31T12:07:18Z</time>
      </trkpt>
      <trkpt lat="59.8521044" lon="17.5858553">
        <ele>19.3638</ele>
        <time>2017-12-31T12:07:22Z</time>
      </trkpt>
      <trkpt lat="59.8522158" lon="17.5856372">
        <ele>15.5184</ele>
        <time>2017-12-31T12:07:24Z</time>
      </trkpt>
      <trkpt lat="59.8523143" lon="17.5855546">
        <ele>16.4797</ele>
        <time>2017-12-31T12:07:29Z</time>
      </trkpt>
      <trkpt lat="59.8523153" lon="17.5855426">
        <ele>17.9218</ele>
        <time>2017-12-31T12:07:31Z</time>
      </trkpt>
      <trkpt lat="59.8523489" lon="17.585378">
        <ele>17.4412</ele>
        <time>2017-12-31T12:07:40Z</time>
      </trkpt>
      <trkpt lat="59.8524163" lon="17.5854024">
        <ele>17.4412</ele>
        <time>2017-12-31T12:07:42Z</time>
      </trkpt>
      <trkpt lat="59.8525671" lon="17.5855912">
        <ele>17.9218</ele>
        <time>2017-12-31T12:07:49Z</time>
      </trkpt>
      <trkpt lat="59.8526561" lon="17.5857219">
        <ele>16.9604</ele>
        <time>2017-12-31T12:07:54Z</time>
      </trkpt>
      <trkpt lat="59.8527544" lon="17.5857369">
        <ele>16.9604</ele>
        <time>2017-12-31T12:07:59Z</time>
      </trkpt>
      <trkpt lat="59.85286" lon="17.5854967">
        <ele>16.4797</ele>
        <time>2017-12-31T12:08:06Z</time>
      </trkpt>
      <trkpt lat="59.8529259" lon="17.5853359">
        <ele>17.9218</ele>
        <time>2017-12-31T12:08:11Z</time>
      </trkpt>
      <trkpt lat="59.8530182" lon="17.5851583">
        <ele>17.4412</ele>
        <time>2017-12-31T12:08:17Z</time>
      </trkpt>
      <trkpt lat="59.8531052" lon="17.5849604">
        <ele>18.8831</ele>
        <time>2017-12-31T12:08:23Z</time>
      </trkpt>
      <trkpt lat="59.8531907" lon="17.5847219">
        <ele>19.8444</ele>
        <time>2017-12-31T12:08:30Z</time>
      </trkpt>
      <trkpt lat="59.8532683" lon="17.5845766">
        <ele>20.325</ele>
        <time>2017-12-31T12:08:35Z</time>
      </trkpt>
      <trkpt lat="59.8533389" lon="17.5844261">
        <ele>20.8057</ele>
        <time>2017-12-31T12:08:40Z</time>
      </trkpt>
      <trkpt lat="59.8534234" lon="17.5842477">
        <ele>21.2864</ele>
        <time>2017-12-31T12:08:46Z</time>
      </trkpt>
      <trkpt lat="59.8534369" lon="17.5842159">
        <ele>21.2864</ele>
        <time>2017-12-31T12:08:47Z</time>
      </trkpt>
      <trkpt lat="59.853527" lon="17.5840259">
        <ele>22.7283</ele>
        <time>2017-12-31T12:08:53Z</time>
      </trkpt>
      <trkpt lat="59.8536138" lon="17.5838467">
        <ele>24.651</ele>
        <time>2017-12-31T12:08:59Z</time>
      </trkpt>
      <trkpt lat="59.8537003" lon="17.5836566">
        <ele>24.651</ele>
        <time>2017-12-31T12:09:05Z</time>
      </trkpt>
      <trkpt lat="59.8537827" lon="17.5834766">
        <ele>25.1317</ele>
        <time>2017-12-31T12:09:11Z</time>
      </trkpt>
      <trkpt lat="59.8538532" lon="17.5833069">
        <ele>24.651</ele>
        <time>2017-12-31T12:09:17Z</time>
      </trkpt>
      <trkpt lat="59.8539194" lon="17.5831179">
        <ele>25.1317</ele>
        <time>2017-12-31T12:09:23Z</time>
      </trkpt>
      <trkpt lat="59.8540065" lon="17.5828807">
        <ele>26.0929</ele>
        <time>2017-12-31T12:09:30Z</time>
      </trkpt>
      <trkpt lat="59.8540378" lon="17.5827786">
        <ele>26.0929</ele>
        <time>2017-12-31T12:09:33Z</time>
      </trkpt>
      <trkpt lat="59.8540831" lon="17.582601">
        <ele>26.0929</ele>
        <time>2017-12-31T12:09:40Z</time>
      </trkpt>
      <trkpt lat="59.8541778" lon="17.5823822">
        <ele>26.0929</ele>
        <time>2017-12-31T12:09:46Z</time>
      </trkpt>
      <trkpt lat="59.8542661" lon="17.5821218">
        <ele>27.0543</ele>
        <time>2017-12-31T12:09:53Z</time>
      </trkpt>
      <trkpt lat="59.8543706" lon="17.5818254">
        <ele>27.5349</ele>
        <time>2017-12-31T12:10:01Z</time>
      </trkpt>
      <trkpt lat="59.8544551" lon="17.5815621">
        <ele>27.5349</ele>
        <time>2017-12-31T12:10:08Z</time>
      </trkpt>
      <trkpt lat="59.8545439" lon="17.5812996">
        <ele>28.0155</ele>
        <time>2017-12-31T12:10:15Z</time>
      </trkpt>
      <trkpt lat="59.8546209" lon="17.5810703">
        <ele>28.0155</ele>
        <time>2017-12-31T12:10:21Z</time>
      </trkpt>
      <trkpt lat="59.8546927" lon="17.5808408">
        <ele>28.0155</ele>
        <time>2017-12-31T12:10:27Z</time>
      </trkpt>
      <trkpt lat="59.8547554" lon="17.5805716">
        <ele>28.0155</ele>
        <time>2017-12-31T12:10:34Z</time>
      </trkpt>
      <trkpt lat="59.8547549" lon="17.5803159">
        <ele>28.0155</ele>
        <time>2017-12-31T12:10:40Z</time>
      </trkpt>
      <trkpt lat="59.8547674" lon="17.5801528">
        <ele>28.9769</ele>
        <time>2017-12-31T12:10:44Z</time>
      </trkpt>
      <trkpt lat="59.8547842" lon="17.5799826">
        <ele>29.4575</ele>
        <time>2017-12-31T12:10:48Z</time>
      </trkpt>
      <trkpt lat="59.8547404" lon="17.5797606">
        <ele>30.4188</ele>
        <time>2017-12-31T12:10:54Z</time>
      </trkpt>
      <trkpt lat="59.8547041" lon="17.5796155">
        <ele>30.4188</ele>
        <time>2017-12-31T12:10:58Z</time>
      </trkpt>
      <trkpt lat="59.8546848" lon="17.5793474">
        <ele>31.8607</ele>
        <time>2017-12-31T12:11:06Z</time>
      </trkpt>
      <trkpt lat="59.854678" lon="17.5791452">
        <ele>32.3416</ele>
        <time>2017-12-31T12:11:11Z</time>
      </trkpt>
      <trkpt lat="59.8546697" lon="17.5789445">
        <ele>33.3029</ele>
        <time>2017-12-31T12:11:16Z</time>
      </trkpt>
      <trkpt lat="59.854683" lon="17.5785656">
        <ele>35.7061</ele>
        <time>2017-12-31T12:11:25Z</time>
      </trkpt>
      <trkpt lat="59.8547046" lon="17.5783454">
        <ele>35.7061</ele>
        <time>2017-12-31T12:11:30Z</time>
      </trkpt>
      <trkpt lat="59.8547261" lon="17.5781251">
        <ele>35.2255</ele>
        <time>2017-12-31T12:11:35Z</time>
      </trkpt>
      <trkpt lat="59.8547333" lon="17.5780386">
        <ele>35.2255</ele>
        <time>2017-12-31T12:11:37Z</time>
      </trkpt>
      <trkpt lat="59.8547322" lon="17.5777418">
        <ele>36.1868</ele>
        <time>2017-12-31T12:11:43Z</time>
      </trkpt>
      <trkpt lat="59.8547287" lon="17.5774742">
        <ele>36.6675</ele>
        <time>2017-12-31T12:11:49Z</time>
      </trkpt>
      <trkpt lat="59.8547416" lon="17.5772312">
        <ele>36.1868</ele>
        <time>2017-12-31T12:11:54Z</time>
      </trkpt>
      <trkpt lat="59.8547722" lon="17.5769908">
        <ele>34.7449</ele>
        <time>2017-12-31T12:11:59Z</time>
      </trkpt>
      <trkpt lat="59.8548514" lon="17.5766369">
        <ele>33.3029</ele>
        <time>2017-12-31T12:12:07Z</time>
      </trkpt>
      <trkpt lat="59.8548701" lon="17.5765494">
        <ele>33.7834</ele>
        <time>2017-12-31T12:12:09Z</time>
      </trkpt>
      <trkpt lat="59.8548717" lon="17.5762237">
        <ele>34.2642</ele>
        <time>2017-12-31T12:12:16Z</time>
      </trkpt>
      <trkpt lat="59.8548925" lon="17.5759667">
        <ele>34.7449</ele>
        <time>2017-12-31T12:12:22Z</time>
      </trkpt>
      <trkpt lat="59.8549007" lon="17.5756574">
        <ele>36.1868</ele>
        <time>2017-12-31T12:12:29Z</time>
      </trkpt>
      <trkpt lat="59.8549172" lon="17.5754187">
        <ele>35.7061</ele>
        <time>2017-12-31T12:12:34Z</time>
      </trkpt>
      <trkpt lat="59.8549089" lon="17.5750959">
        <ele>34.7449</ele>
        <time>2017-12-31T12:12:41Z</time>
      </trkpt>
      <trkpt lat="59.8549012" lon="17.5749281">
        <ele>34.2642</ele>
        <time>2017-12-31T12:12:45Z</time>
      </trkpt>
      <trkpt lat="59.8548612" lon="17.5747132">
        <ele>34.7449</ele>
        <time>2017-12-31T12:12:50Z</time>
      </trkpt>
      <trkpt lat="59.8547969" lon="17.5744836">
        <ele>34.7449</ele>
        <time>2017-12-31T12:12:56Z</time>
      </trkpt>
      <trkpt lat="59.8547402" lon="17.5742955">
        <ele>36.1868</ele>
        <time>2017-12-31T12:13:01Z</time>
      </trkpt>
      <trkpt lat="59.8547248" lon="17.5742203">
        <ele>35.7061</ele>
        <time>2017-12-31T12:13:03Z</time>
      </trkpt>
      <trkpt lat="59.8547174" lon="17.5741126">
        <ele>34.7449</ele>
        <time>2017-12-31T12:13:06Z</time>
      </trkpt>
      <trkpt lat="59.8547307" lon="17.5739053">
        <ele>34.2642</ele>
        <time>2017-12-31T12:13:11Z</time>
      </trkpt>
      <trkpt lat="59.8548255" lon="17.5737629">
        <ele>31.8607</ele>
        <time>2017-12-31T12:13:17Z</time>
      </trkpt>
      <trkpt lat="59.8549005" lon="17.5737389">
        <ele>33.7834</ele>
        <time>2017-12-31T12:13:21Z</time>
      </trkpt>
      <trkpt lat="59.8550289" lon="17.5736766">
        <ele>35.2255</ele>
        <time>2017-12-31T12:13:27Z</time>
      </trkpt>
      <trkpt lat="59.8550643" lon="17.573674">
        <ele>35.7061</ele>
        <time>2017-12-31T12:13:29Z</time>
      </trkpt>
      <trkpt lat="59.8551765" lon="17.5735729">
        <ele>38.1094</ele>
        <time>2017-12-31T12:13:34Z</time>
      </trkpt>
      <trkpt lat="59.8552649" lon="17.5734274">
        <ele>38.1094</ele>
        <time>2017-12-31T12:13:39Z</time>
      </trkpt>
      <trkpt lat="59.8553297" lon="17.5732663">
        <ele>38.5901</ele>
        <time>2017-12-31T12:13:43Z</time>
      </trkpt>
      <trkpt lat="59.8553996" lon="17.5730859">
        <ele>38.1094</ele>
        <time>2017-12-31T12:13:48Z</time>
      </trkpt>
      <trkpt lat="59.8554575" lon="17.5728789">
        <ele>36.6675</ele>
        <time>2017-12-31T12:13:53Z</time>
      </trkpt>
      <trkpt lat="59.8554825" lon="17.5728001">
        <ele>36.1868</ele>
        <time>2017-12-31T12:13:55Z</time>
      </trkpt>
      <trkpt lat="59.855505" lon="17.5725896">
        <ele>35.7061</ele>
        <time>2017-12-31T12:14:00Z</time>
      </trkpt>
      <trkpt lat="59.8555166" lon="17.5723839">
        <ele>34.7449</ele>
        <time>2017-12-31T12:14:04Z</time>
      </trkpt>
      <trkpt lat="59.8555285" lon="17.5722812">
        <ele>33.3029</ele>
        <time>2017-12-31T12:14:06Z</time>
      </trkpt>
      <trkpt lat="59.8555616" lon="17.5721127">
        <ele>31.8607</ele>
        <time>2017-12-31T12:14:10Z</time>
      </trkpt>
      <trkpt lat="59.8556025" lon="17.5719015">
        <ele>31.8607</ele>
        <time>2017-12-31T12:14:15Z</time>
      </trkpt>
      <trkpt lat="59.8556176" lon="17.5718603">
        <ele>31.3801</ele>
        <time>2017-12-31T12:14:16Z</time>
      </trkpt>
      <trkpt lat="59.8556865" lon="17.5717202">
        <ele>30.4188</ele>
        <time>2017-12-31T12:14:20Z</time>
      </trkpt>
      <trkpt lat="59.8557704" lon="17.5715786">
        <ele>29.9381</ele>
        <time>2017-12-31T12:14:25Z</time>
      </trkpt>
      <trkpt lat="59.855801" lon="17.5715268">
        <ele>29.4575</ele>
        <time>2017-12-31T12:14:27Z</time>
      </trkpt>
      <trkpt lat="59.855879" lon="17.5712886">
        <ele>28.0155</ele>
        <time>2017-12-31T12:14:33Z</time>
      </trkpt>
      <trkpt lat="59.8559382" lon="17.571042">
        <ele>28.0155</ele>
        <time>2017-12-31T12:14:39Z</time>
      </trkpt>
      <trkpt lat="59.8559672" lon="17.5708022">
        <ele>28.9769</ele>
        <time>2017-12-31T12:14:44Z</time>
      </trkpt>
      <trkpt lat="59.8559507" lon="17.5704396">
        <ele>29.9381</ele>
        <time>2017-12-31T12:14:51Z</time>
      </trkpt>
      <trkpt lat="59.8559657" lon="17.5702353">
        <ele>30.8995</ele>
        <time>2017-12-31T12:14:55Z</time>
      </trkpt>
      <trkpt lat="59.8559884" lon="17.5700199">
        <ele>32.8223</ele>
        <time>2017-12-31T12:14:59Z</time>
      </trkpt>
      <trkpt lat="59.8560325" lon="17.5698037">
        <ele>34.2642</ele>
        <time>2017-12-31T12:15:04Z</time>
      </trkpt>
      <trkpt lat="59.8560812" lon="17.5696335">
        <ele>36.1868</ele>
        <time>2017-12-31T12:15:08Z</time>
      </trkpt>
      <trkpt lat="59.8561713" lon="17.5694837">
        <ele>38.1094</ele>
        <time>2017-12-31T12:15:13Z</time>
      </trkpt>
      <trkpt lat="59.8562112" lon="17.5693762">
        <ele>40.0321</ele>
        <time>2017-12-31T12:15:16Z</time>
      </trkpt>
      <trkpt lat="59.856269" lon="17.5691273">
        <ele>41.474</ele>
        <time>2017-12-31T12:15:22Z</time>
      </trkpt>
      <trkpt lat="59.8563011" lon="17.5688746">
        <ele>41.474</ele>
        <time>2017-12-31T12:15:27Z</time>
      </trkpt>
      <trkpt lat="59.8563504" lon="17.5686944">
        <ele>41.474</ele>
        <time>2017-12-31T12:15:31Z</time>
      </trkpt>
      <trkpt lat="59.8564339" lon="17.5685158">
        <ele>40.9934</ele>
        <time>2017-12-31T12:15:36Z</time>
      </trkpt>
      <trkpt lat="59.8564929" lon="17.5683521">
        <ele>40.5128</ele>
        <time>2017-12-31T12:15:41Z</time>
      </trkpt>
      <trkpt lat="59.8565221" lon="17.5680773">
        <ele>39.5513</ele>
        <time>2017-12-31T12:15:47Z</time>
      </trkpt>
      <trkpt lat="59.856578" lon="17.5678868">
        <ele>38.1094</ele>
        <time>2017-12-31T12:15:52Z</time>
      </trkpt>
      <trkpt lat="59.8566283" lon="17.5677455">
        <ele>37.6287</ele>
        <time>2017-12-31T12:15:56Z</time>
      </trkpt>
      <trkpt lat="59.8566609" lon="17.5674838">
        <ele>35.7061</ele>
        <time>2017-12-31T12:16:02Z</time>
      </trkpt>
      <trkpt lat="59.8566503" lon="17.5672708">
        <ele>35.7061</ele>
        <time>2017-12-31T12:16:07Z</time>
      </trkpt>
      <trkpt lat="59.856627" lon="17.5670356">
        <ele>36.1868</ele>
        <time>2017-12-31T12:16:12Z</time>
      </trkpt>
      <trkpt lat="59.8565781" lon="17.566749">
        <ele>37.1481</ele>
        <time>2017-12-31T12:16:19Z</time>
      </trkpt>
      <trkpt lat="59.8565174" lon="17.5664942">
        <ele>38.1094</ele>
        <time>2017-12-31T12:16:25Z</time>
      </trkpt>
      <trkpt lat="59.8564312" lon="17.566215">
        <ele>37.1481</ele>
        <time>2017-12-31T12:16:32Z</time>
      </trkpt>
      <trkpt lat="59.8564008" lon="17.5661464">
        <ele>37.1481</ele>
        <time>2017-12-31T12:16:34Z</time>
      </trkpt>
      <trkpt lat="59.8563614" lon="17.5659002">
        <ele>36.6675</ele>
        <time>2017-12-31T12:16:40Z</time>
      </trkpt>
      <trkpt lat="59.8563607" lon="17.565663">
        <ele>36.1868</ele>
        <time>2017-12-31T12:16:45Z</time>
      </trkpt>
      <trkpt lat="59.8563582" lon="17.5654266">
        <ele>35.7061</ele>
        <time>2017-12-31T12:16:50Z</time>
      </trkpt>
      <trkpt lat="59.856351" lon="17.5651411">
        <ele>35.2255</ele>
        <time>2017-12-31T12:16:56Z</time>
      </trkpt>
      <trkpt lat="59.856375" lon="17.5648249">
        <ele>35.2255</ele>
        <time>2017-12-31T12:17:03Z</time>
      </trkpt>
      <trkpt lat="59.8563567" lon="17.5646088">
        <ele>34.7449</ele>
        <time>2017-12-31T12:17:08Z</time>
      </trkpt>
      <trkpt lat="59.8563257" lon="17.564317">
        <ele>34.7449</ele>
        <time>2017-12-31T12:17:15Z</time>
      </trkpt>
      <trkpt lat="59.8563671" lon="17.5641338">
        <ele>34.2642</ele>
        <time>2017-12-31T12:17:20Z</time>
      </trkpt>
      <trkpt lat="59.8564427" lon="17.5638344">
        <ele>33.3029</ele>
        <time>2017-12-31T12:17:27Z</time>
      </trkpt>
      <trkpt lat="59.8564714" lon="17.5636653">
        <ele>33.3029</ele>
        <time>2017-12-31T12:17:31Z</time>
      </trkpt>
      <trkpt lat="59.8565113" lon="17.563468">
        <ele>33.7834</ele>
        <time>2017-12-31T12:17:36Z</time>
      </trkpt>
      <trkpt lat="59.8565649" lon="17.5631791">
        <ele>33.3029</ele>
        <time>2017-12-31T12:17:42Z</time>
      </trkpt>
      <trkpt lat="59.8565836" lon="17.5629257">
        <ele>32.8223</ele>
        <time>2017-12-31T12:17:47Z</time>
      </trkpt>
      <trkpt lat="59.8566184" lon="17.5626879">
        <ele>32.8223</ele>
        <time>2017-12-31T12:17:52Z</time>
      </trkpt>
      <trkpt lat="59.8566443" lon="17.5624066">
        <ele>31.8607</ele>
        <time>2017-12-31T12:17:58Z</time>
      </trkpt>
      <trkpt lat="59.856665" lon="17.5622011">
        <ele>30.8995</ele>
        <time>2017-12-31T12:18:03Z</time>
      </trkpt>
      <trkpt lat="59.8566774" lon="17.5619255">
        <ele>29.4575</ele>
        <time>2017-12-31T12:18:09Z</time>
      </trkpt>
      <trkpt lat="59.8566873" lon="17.5616915">
        <ele>29.4575</ele>
        <time>2017-12-31T12:18:14Z</time>
      </trkpt>
      <trkpt lat="59.856709" lon="17.5614645">
        <ele>29.9381</ele>
        <time>2017-12-31T12:18:19Z</time>
      </trkpt>
      <trkpt lat="59.8567104" lon="17.5614143">
        <ele>30.4188</ele>
        <time>2017-12-31T12:18:20Z</time>
      </trkpt>
      <trkpt lat="59.856758" lon="17.5611034">
        <ele>32.3416</ele>
        <time>2017-12-31T12:18:27Z</time>
      </trkpt>
      <trkpt lat="59.8567697" lon="17.5609693">
        <ele>33.3029</ele>
        <time>2017-12-31T12:18:30Z</time>
      </trkpt>
      <trkpt lat="59.8567852" lon="17.5607729">
        <ele>35.2255</ele>
        <time>2017-12-31T12:18:34Z</time>
      </trkpt>
      <trkpt lat="59.8568085" lon="17.5603596">
        <ele>35.7061</ele>
        <time>2017-12-31T12:18:42Z</time>
      </trkpt>
      <trkpt lat="59.8568282" lon="17.5601617">
        <ele>35.7061</ele>
        <time>2017-12-31T12:18:46Z</time>
      </trkpt>
      <trkpt lat="59.8568492" lon="17.5599348">
        <ele>36.1868</ele>
        <time>2017-12-31T12:18:51Z</time>
      </trkpt>
      <trkpt lat="59.8568712" lon="17.5596851">
        <ele>36.6675</ele>
        <time>2017-12-31T12:18:56Z</time>
      </trkpt>
      <trkpt lat="59.8568718" lon="17.5595349">
        <ele>37.1481</ele>
        <time>2017-12-31T12:18:59Z</time>
      </trkpt>
      <trkpt lat="59.8568963" lon="17.5592846">
        <ele>38.1094</ele>
        <time>2017-12-31T12:19:04Z</time>
      </trkpt>
      <trkpt lat="59.8569043" lon="17.5591977">
        <ele>38.1094</ele>
        <time>2017-12-31T12:19:06Z</time>
      </trkpt>
      <trkpt lat="59.8569112" lon="17.5589492">
        <ele>37.6287</ele>
        <time>2017-12-31T12:19:12Z</time>
      </trkpt>
      <trkpt lat="59.8568458" lon="17.55879">
        <ele>35.7061</ele>
        <time>2017-12-31T12:19:17Z</time>
      </trkpt>
      <trkpt lat="59.8567847" lon="17.5586138">
        <ele>35.7061</ele>
        <time>2017-12-31T12:19:23Z</time>
      </trkpt>
      <trkpt lat="59.8567727" lon="17.5585339">
        <ele>36.1868</ele>
        <time>2017-12-31T12:19:26Z</time>
      </trkpt>
      <trkpt lat="59.8566951" lon="17.558478">
        <ele>36.1868</ele>
        <time>2017-12-31T12:19:32Z</time>
      </trkpt>
      <trkpt lat="59.8566572" lon="17.5583987">
        <ele>36.1868</ele>
        <time>2017-12-31T12:19:35Z</time>
      </trkpt>
      <trkpt lat="59.8566613" lon="17.558243">
        <ele>35.2255</ele>
        <time>2017-12-31T12:19:41Z</time>
      </trkpt>
      <trkpt lat="59.8566475" lon="17.5581674">
        <ele>35.2255</ele>
        <time>2017-12-31T12:19:45Z</time>
      </trkpt>
      <trkpt lat="59.8565754" lon="17.5581124">
        <ele>35.7061</ele>
        <time>2017-12-31T12:19:51Z</time>
      </trkpt>
      <trkpt lat="59.8565117" lon="17.5580354">
        <ele>34.7449</ele>
        <time>2017-12-31T12:19:57Z</time>
      </trkpt>
      <trkpt lat="59.8564842" lon="17.5580177">
        <ele>34.7449</ele>
        <time>2017-12-31T12:19:59Z</time>
      </trkpt>
      <trkpt lat="59.8564225" lon="17.5579401">
        <ele>35.7061</ele>
        <time>2017-12-31T12:20:05Z</time>
      </trkpt>
      <trkpt lat="59.8563998" lon="17.5579043">
        <ele>35.7061</ele>
        <time>2017-12-31T12:20:08Z</time>
      </trkpt>
      <trkpt lat="59.8563966" lon="17.5578866">
        <ele>36.1868</ele>
        <time>2017-12-31T12:20:11Z</time>
      </trkpt>
      <trkpt lat="59.8563512" lon="17.5578498">
        <ele>38.1094</ele>
        <time>2017-12-31T12:20:22Z</time>
      </trkpt>
      <trkpt lat="59.8562699" lon="17.5577522">
        <ele>38.5901</ele>
        <time>2017-12-31T12:20:25Z</time>
      </trkpt>
      <trkpt lat="59.8561237" lon="17.5575635">
        <ele>37.6287</ele>
        <time>2017-12-31T12:20:33Z</time>
      </trkpt>
      <trkpt lat="59.8559994" lon="17.5572965">
        <ele>37.6287</ele>
        <time>2017-12-31T12:20:41Z</time>
      </trkpt>
      <trkpt lat="59.8559113" lon="17.5570511">
        <ele>37.1481</ele>
        <time>2017-12-31T12:20:48Z</time>
      </trkpt>
      <trkpt lat="59.8558553" lon="17.5567884">
        <ele>37.1481</ele>
        <time>2017-12-31T12:20:55Z</time>
      </trkpt>
      <trkpt lat="59.8558124" lon="17.5565433">
        <ele>37.6287</ele>
        <time>2017-12-31T12:21:01Z</time>
      </trkpt>
      <trkpt lat="59.8557795" lon="17.5562698">
        <ele>37.6287</ele>
        <time>2017-12-31T12:21:08Z</time>
      </trkpt>
      <trkpt lat="59.8557728" lon="17.5562339">
        <ele>37.1481</ele>
        <time>2017-12-31T12:21:09Z</time>
      </trkpt>
      <trkpt lat="59.8556807" lon="17.556183">
        <ele>37.1481</ele>
        <time>2017-12-31T12:21:14Z</time>
      </trkpt>
      <trkpt lat="59.8556353" lon="17.5561996">
        <ele>37.1481</ele>
        <time>2017-12-31T12:21:16Z</time>
      </trkpt>
      <trkpt lat="59.8554491" lon="17.5562927">
        <ele>37.1481</ele>
        <time>2017-12-31T12:21:24Z</time>
      </trkpt>
      <trkpt lat="59.8553017" lon="17.5564257">
        <ele>37.6287</ele>
        <time>2017-12-31T12:21:31Z</time>
      </trkpt>
      <trkpt lat="59.8551494" lon="17.5565434">
        <ele>37.1481</ele>
        <time>2017-12-31T12:21:38Z</time>
      </trkpt>
      <trkpt lat="59.8549923" lon="17.5566297">
        <ele>37.1481</ele>
        <time>2017-12-31T12:21:45Z</time>
      </trkpt>
      <trkpt lat="59.8548395" lon="17.556745">
        <ele>37.1481</ele>
        <time>2017-12-31T12:21:52Z</time>
      </trkpt>
      <trkpt lat="59.8546779" lon="17.5568652">
        <ele>37.1481</ele>
        <time>2017-12-31T12:21:59Z</time>
      </trkpt>
      <trkpt lat="59.8545101" lon="17.5570516">
        <ele>37.1481</ele>
        <time>2017-12-31T12:22:07Z</time>
      </trkpt>
      <trkpt lat="59.8544156" lon="17.5572598">
        <ele>37.6287</ele>
        <time>2017-12-31T12:22:13Z</time>
      </trkpt>
      <trkpt lat="59.8543457" lon="17.5575338">
        <ele>38.5901</ele>
        <time>2017-12-31T12:22:20Z</time>
      </trkpt>
      <trkpt lat="59.8542562" lon="17.557741">
        <ele>38.1094</ele>
        <time>2017-12-31T12:22:26Z</time>
      </trkpt>
      <trkpt lat="59.8541027" lon="17.5579472">
        <ele>38.1094</ele>
        <time>2017-12-31T12:22:34Z</time>
      </trkpt>
      <trkpt lat="59.8539755" lon="17.5580721">
        <ele>38.1094</ele>
        <time>2017-12-31T12:22:40Z</time>
      </trkpt>
      <trkpt lat="59.8538311" lon="17.5582278">
        <ele>37.6287</ele>
        <time>2017-12-31T12:22:47Z</time>
      </trkpt>
      <trkpt lat="59.8537242" lon="17.5583882">
        <ele>38.1094</ele>
        <time>2017-12-31T12:22:53Z</time>
      </trkpt>
      <trkpt lat="59.8537313" lon="17.5587021">
        <ele>38.1094</ele>
        <time>2017-12-31T12:23:00Z</time>
      </trkpt>
      <trkpt lat="59.8537481" lon="17.5590362">
        <ele>37.6287</ele>
        <time>2017-12-31T12:23:07Z</time>
      </trkpt>
      <trkpt lat="59.8537655" lon="17.5592572">
        <ele>38.5901</ele>
        <time>2017-12-31T12:23:12Z</time>
      </trkpt>
      <trkpt lat="59.8538413" lon="17.5594961">
        <ele>40.0321</ele>
        <time>2017-12-31T12:23:18Z</time>
      </trkpt>
      <trkpt lat="59.8539569" lon="17.5597626">
        <ele>39.5513</ele>
        <time>2017-12-31T12:23:25Z</time>
      </trkpt>
      <trkpt lat="59.8539806" lon="17.5598411">
        <ele>39.0707</ele>
        <time>2017-12-31T12:23:27Z</time>
      </trkpt>
      <trkpt lat="59.853935" lon="17.5599567">
        <ele>38.5901</ele>
        <time>2017-12-31T12:23:31Z</time>
      </trkpt>
      <trkpt lat="59.8538391" lon="17.5599975">
        <ele>38.5901</ele>
        <time>2017-12-31T12:23:35Z</time>
      </trkpt>
      <trkpt lat="59.853774" lon="17.5600462">
        <ele>38.5901</ele>
        <time>2017-12-31T12:23:39Z</time>
      </trkpt>
      <trkpt lat="59.8537007" lon="17.5600799">
        <ele>37.6287</ele>
        <time>2017-12-31T12:23:43Z</time>
      </trkpt>
      <trkpt lat="59.8535352" lon="17.5600136">
        <ele>35.2255</ele>
        <time>2017-12-31T12:23:50Z</time>
      </trkpt>
      <trkpt lat="59.8534015" lon="17.5600269">
        <ele>35.2255</ele>
        <time>2017-12-31T12:23:55Z</time>
      </trkpt>
      <trkpt lat="59.8532663" lon="17.5601109">
        <ele>35.2255</ele>
        <time>2017-12-31T12:24:01Z</time>
      </trkpt>
      <trkpt lat="59.8531004" lon="17.5602186">
        <ele>37.1481</ele>
        <time>2017-12-31T12:24:08Z</time>
      </trkpt>
      <trkpt lat="59.8529659" lon="17.5603741">
        <ele>38.5901</ele>
        <time>2017-12-31T12:24:14Z</time>
      </trkpt>
      <trkpt lat="59.8528613" lon="17.5605487">
        <ele>38.5901</ele>
        <time>2017-12-31T12:24:20Z</time>
      </trkpt>
      <trkpt lat="59.8527616" lon="17.5607646">
        <ele>40.0321</ele>
        <time>2017-12-31T12:24:26Z</time>
      </trkpt>
      <trkpt lat="59.8526436" lon="17.560888">
        <ele>41.474</ele>
        <time>2017-12-31T12:24:32Z</time>
      </trkpt>
      <trkpt lat="59.8525632" lon="17.5609225">
        <ele>41.9547</ele>
        <time>2017-12-31T12:24:36Z</time>
      </trkpt>
      <trkpt lat="59.8525416" lon="17.5609471">
        <ele>41.9547</ele>
        <time>2017-12-31T12:24:37Z</time>
      </trkpt>
      <trkpt lat="59.8524203" lon="17.5611108">
        <ele>40.9934</ele>
        <time>2017-12-31T12:24:43Z</time>
      </trkpt>
      <trkpt lat="59.8523837" lon="17.5611592">
        <ele>40.9934</ele>
        <time>2017-12-31T12:24:45Z</time>
      </trkpt>
      <trkpt lat="59.8522625" lon="17.5612115">
        <ele>40.9934</ele>
        <time>2017-12-31T12:24:50Z</time>
      </trkpt>
      <trkpt lat="59.8521246" lon="17.5612868">
        <ele>42.4354</ele>
        <time>2017-12-31T12:24:55Z</time>
      </trkpt>
      <trkpt lat="59.852034" lon="17.5613734">
        <ele>44.358</ele>
        <time>2017-12-31T12:24:59Z</time>
      </trkpt>
      <trkpt lat="59.8519464" lon="17.5614433">
        <ele>45.7999</ele>
        <time>2017-12-31T12:25:03Z</time>
      </trkpt>
      <trkpt lat="59.8518144" lon="17.5615382">
        <ele>44.8386</ele>
        <time>2017-12-31T12:25:09Z</time>
      </trkpt>
      <trkpt lat="59.8516952" lon="17.5617551">
        <ele>42.4354</ele>
        <time>2017-12-31T12:25:16Z</time>
      </trkpt>
      <trkpt lat="59.8516071" lon="17.5619235">
        <ele>41.9547</ele>
        <time>2017-12-31T12:25:20Z</time>
      </trkpt>
      <trkpt lat="59.8515021" lon="17.5620324">
        <ele>41.9547</ele>
        <time>2017-12-31T12:25:25Z</time>
      </trkpt>
      <trkpt lat="59.8513782" lon="17.5621302">
        <ele>41.474</ele>
        <time>2017-12-31T12:25:31Z</time>
      </trkpt>
      <trkpt lat="59.8512508" lon="17.5622378">
        <ele>40.9934</ele>
        <time>2017-12-31T12:25:37Z</time>
      </trkpt>
      <trkpt lat="59.8511777" lon="17.5623228">
        <ele>41.474</ele>
        <time>2017-12-31T12:25:41Z</time>
      </trkpt>
      <trkpt lat="59.8510799" lon="17.5624332">
        <ele>40.0321</ele>
        <time>2017-12-31T12:25:46Z</time>
      </trkpt>
      <trkpt lat="59.850999" lon="17.5625309">
        <ele>40.0321</ele>
        <time>2017-12-31T12:25:50Z</time>
      </trkpt>
      <trkpt lat="59.8508374" lon="17.5626974">
        <ele>40.0321</ele>
        <time>2017-12-31T12:25:56Z</time>
      </trkpt>
      <trkpt lat="59.850742" lon="17.5628248">
        <ele>38.5901</ele>
        <time>2017-12-31T12:26:01Z</time>
      </trkpt>
      <trkpt lat="59.8506923" lon="17.5628932">
        <ele>38.5901</ele>
        <time>2017-12-31T12:26:04Z</time>
      </trkpt>
      <trkpt lat="59.8506255" lon="17.5627367">
        <ele>36.6675</ele>
        <time>2017-12-31T12:26:09Z</time>
      </trkpt>
      <trkpt lat="59.8506079" lon="17.5626189">
        <ele>35.7061</ele>
        <time>2017-12-31T12:26:12Z</time>
      </trkpt>
      <trkpt lat="59.8504903" lon="17.5623466">
        <ele>33.7834</ele>
        <time>2017-12-31T12:26:19Z</time>
      </trkpt>
      <trkpt lat="59.8504002" lon="17.5622437">
        <ele>34.2642</ele>
        <time>2017-12-31T12:26:23Z</time>
      </trkpt>
      <trkpt lat="59.8503761" lon="17.5622364">
        <ele>33.7834</ele>
        <time>2017-12-31T12:26:24Z</time>
      </trkpt>
      <trkpt lat="59.8501842" lon="17.5622194">
        <ele>33.3029</ele>
        <time>2017-12-31T12:26:32Z</time>
      </trkpt>
      <trkpt lat="59.8500775" lon="17.5623082">
        <ele>33.3029</ele>
        <time>2017-12-31T12:26:37Z</time>
      </trkpt>
      <trkpt lat="59.849949" lon="17.5624727">
        <ele>33.7834</ele>
        <time>2017-12-31T12:26:43Z</time>
      </trkpt>
      <trkpt lat="59.8497916" lon="17.5624517">
        <ele>34.2642</ele>
        <time>2017-12-31T12:26:49Z</time>
      </trkpt>
      <trkpt lat="59.8496255" lon="17.5625096">
        <ele>34.2642</ele>
        <time>2017-12-31T12:26:56Z</time>
      </trkpt>
      <trkpt lat="59.8494847" lon="17.5625372">
        <ele>33.3029</ele>
        <time>2017-12-31T12:27:02Z</time>
      </trkpt>
      <trkpt lat="59.8493661" lon="17.5625594">
        <ele>32.3416</ele>
        <time>2017-12-31T12:27:07Z</time>
      </trkpt>
      <trkpt lat="59.8493441" lon="17.562571">
        <ele>32.3416</ele>
        <time>2017-12-31T12:27:08Z</time>
      </trkpt>
      <trkpt lat="59.8492673" lon="17.5625736">
        <ele>31.8607</ele>
        <time>2017-12-31T12:27:13Z</time>
      </trkpt>
      <trkpt lat="59.8492617" lon="17.5625532">
        <ele>30.8995</ele>
        <time>2017-12-31T12:27:16Z</time>
      </trkpt>
      <trkpt lat="59.849279" lon="17.5626226">
        <ele>31.3801</ele>
        <time>2017-12-31T12:32:41Z</time>
      </trkpt>
      <trkpt lat="59.849315" lon="17.5624559">
        <ele>29.9381</ele>
        <time>2017-12-31T12:32:43Z</time>
      </trkpt>
      <trkpt lat="59.8493672" lon="17.5624301">
        <ele>28.0155</ele>
        <time>2017-12-31T12:32:47Z</time>
      </trkpt>
      <trkpt lat="59.8494952" lon="17.5623395">
        <ele>32.8223</ele>
        <time>2017-12-31T12:32:53Z</time>
      </trkpt>
      <trkpt lat="59.8495242" lon="17.562302">
        <ele>31.8607</ele>
        <time>2017-12-31T12:32:55Z</time>
      </trkpt>
      <trkpt lat="59.8495232" lon="17.5621115">
        <ele>31.8607</ele>
        <time>2017-12-31T12:33:00Z</time>
      </trkpt>
      <trkpt lat="59.8494149" lon="17.5620571">
        <ele>32.8223</ele>
        <time>2017-12-31T12:33:05Z</time>
      </trkpt>
      <trkpt lat="59.8493854" lon="17.5620662">
        <ele>32.8223</ele>
        <time>2017-12-31T12:33:06Z</time>
      </trkpt>
      <trkpt lat="59.8492441" lon="17.5621737">
        <ele>34.7449</ele>
        <time>2017-12-31T12:33:13Z</time>
      </trkpt>
      <trkpt lat="59.8491405" lon="17.5622828">
        <ele>34.7449</ele>
        <time>2017-12-31T12:33:18Z</time>
      </trkpt>
      <trkpt lat="59.8490419" lon="17.5624182">
        <ele>35.2255</ele>
        <time>2017-12-31T12:33:23Z</time>
      </trkpt>
      <trkpt lat="59.8489258" lon="17.5626361">
        <ele>33.7834</ele>
        <time>2017-12-31T12:33:30Z</time>
      </trkpt>
      <trkpt lat="59.8488399" lon="17.5628652">
        <ele>33.3029</ele>
        <time>2017-12-31T12:33:36Z</time>
      </trkpt>
      <trkpt lat="59.8486984" lon="17.5630241">
        <ele>32.3416</ele>
        <time>2017-12-31T12:33:43Z</time>
      </trkpt>
      <trkpt lat="59.8485457" lon="17.5631559">
        <ele>31.8607</ele>
        <time>2017-12-31T12:33:50Z</time>
      </trkpt>
      <trkpt lat="59.8483861" lon="17.5632308">
        <ele>31.8607</ele>
        <time>2017-12-31T12:33:57Z</time>
      </trkpt>
      <trkpt lat="59.8482254" lon="17.5631413">
        <ele>30.4188</ele>
        <time>2017-12-31T12:34:04Z</time>
      </trkpt>
      <trkpt lat="59.848149" lon="17.5630373">
        <ele>30.4188</ele>
        <time>2017-12-31T12:34:08Z</time>
      </trkpt>
      <trkpt lat="59.8481391" lon="17.563004">
        <ele>30.4188</ele>
        <time>2017-12-31T12:34:12Z</time>
      </trkpt>
      <trkpt lat="59.8481181" lon="17.5629717">
        <ele>30.4188</ele>
        <time>2017-12-31T12:34:15Z</time>
      </trkpt>
      <trkpt lat="59.8480841" lon="17.5628352">
        <ele>30.4188</ele>
        <time>2017-12-31T12:34:17Z</time>
      </trkpt>
      <trkpt lat="59.8480433" lon="17.5627134">
        <ele>30.4188</ele>
        <time>2017-12-31T12:34:20Z</time>
      </trkpt>
      <trkpt lat="59.8480199" lon="17.5626911">
        <ele>30.4188</ele>
        <time>2017-12-31T12:34:24Z</time>
      </trkpt>
      <trkpt lat="59.8479794" lon="17.5626963">
        <ele>30.4188</ele>
        <time>2017-12-31T12:35:09Z</time>
      </trkpt>
      <trkpt lat="59.8478182" lon="17.5628258">
        <ele>30.8995</ele>
        <time>2017-12-31T12:35:14Z</time>
      </trkpt>
      <trkpt lat="59.8477092" lon="17.5630564">
        <ele>29.9381</ele>
        <time>2017-12-31T12:35:20Z</time>
      </trkpt>
      <trkpt lat="59.847619" lon="17.5631598">
        <ele>29.9381</ele>
        <time>2017-12-31T12:35:24Z</time>
      </trkpt>
      <trkpt lat="59.8475733" lon="17.5631909">
        <ele>29.9381</ele>
        <time>2017-12-31T12:35:26Z</time>
      </trkpt>
      <trkpt lat="59.8476034" lon="17.5631584">
        <ele>29.9381</ele>
        <time>2017-12-31T12:35:30Z</time>
      </trkpt>
      <trkpt lat="59.8476262" lon="17.5631372">
        <ele>29.9381</ele>
        <time>2017-12-31T12:35:31Z</time>
      </trkpt>
      <trkpt lat="59.8477102" lon="17.5630409">
        <ele>29.9381</ele>
        <time>2017-12-31T12:35:36Z</time>
      </trkpt>
      <trkpt lat="59.847659" lon="17.5631242">
        <ele>30.4188</ele>
        <time>2017-12-31T12:35:40Z</time>
      </trkpt>
      <trkpt lat="59.8475262" lon="17.5632361">
        <ele>30.4188</ele>
        <time>2017-12-31T12:35:46Z</time>
      </trkpt>
      <trkpt lat="59.8474045" lon="17.5633298">
        <ele>29.4575</ele>
        <time>2017-12-31T12:35:51Z</time>
      </trkpt>
      <trkpt lat="59.8472828" lon="17.5634257">
        <ele>29.9381</ele>
        <time>2017-12-31T12:35:56Z</time>
      </trkpt>
      <trkpt lat="59.8471403" lon="17.5635618">
        <ele>31.3801</ele>
        <time>2017-12-31T12:36:02Z</time>
      </trkpt>
      <trkpt lat="59.8470531" lon="17.5636078">
        <ele>31.8607</ele>
        <time>2017-12-31T12:36:06Z</time>
      </trkpt>
      <trkpt lat="59.8469399" lon="17.5636547">
        <ele>33.3029</ele>
        <time>2017-12-31T12:36:11Z</time>
      </trkpt>
      <trkpt lat="59.8467881" lon="17.5637665">
        <ele>34.2642</ele>
        <time>2017-12-31T12:36:18Z</time>
      </trkpt>
      <trkpt lat="59.8466975" lon="17.5638303">
        <ele>33.3029</ele>
        <time>2017-12-31T12:36:22Z</time>
      </trkpt>
      <trkpt lat="59.8465567" lon="17.563872">
        <ele>32.3416</ele>
        <time>2017-12-31T12:36:28Z</time>
      </trkpt>
      <trkpt lat="59.8464196" lon="17.5639416">
        <ele>32.3416</ele>
        <time>2017-12-31T12:36:34Z</time>
      </trkpt>
      <trkpt lat="59.8462933" lon="17.5639922">
        <ele>31.8607</ele>
        <time>2017-12-31T12:36:39Z</time>
      </trkpt>
      <trkpt lat="59.8461495" lon="17.5640554">
        <ele>31.3801</ele>
        <time>2017-12-31T12:36:45Z</time>
      </trkpt>
      <trkpt lat="59.8459751" lon="17.5641303">
        <ele>30.8995</ele>
        <time>2017-12-31T12:36:52Z</time>
      </trkpt>
      <trkpt lat="59.8458211" lon="17.5641883">
        <ele>30.4188</ele>
        <time>2017-12-31T12:36:58Z</time>
      </trkpt>
      <trkpt lat="59.8456428" lon="17.5642415">
        <ele>30.4188</ele>
        <time>2017-12-31T12:37:05Z</time>
      </trkpt>
      <trkpt lat="59.8454929" lon="17.5642981">
        <ele>30.4188</ele>
        <time>2017-12-31T12:37:11Z</time>
      </trkpt>
      <trkpt lat="59.8453689" lon="17.5643394">
        <ele>30.8995</ele>
        <time>2017-12-31T12:37:16Z</time>
      </trkpt>
      <trkpt lat="59.8452227" lon="17.564402">
        <ele>31.8607</ele>
        <time>2017-12-31T12:37:22Z</time>
      </trkpt>
      <trkpt lat="59.8451123" lon="17.5644399">
        <ele>31.8607</ele>
        <time>2017-12-31T12:37:27Z</time>
      </trkpt>
      <trkpt lat="59.8449935" lon="17.5644724">
        <ele>32.3416</ele>
        <time>2017-12-31T12:37:32Z</time>
      </trkpt>
      <trkpt lat="59.8448187" lon="17.5645315">
        <ele>31.8607</ele>
        <time>2017-12-31T12:37:39Z</time>
      </trkpt>
      <trkpt lat="59.844612" lon="17.5646253">
        <ele>31.3801</ele>
        <time>2017-12-31T12:37:47Z</time>
      </trkpt>
      <trkpt lat="59.8444354" lon="17.5646937">
        <ele>29.9381</ele>
        <time>2017-12-31T12:37:54Z</time>
      </trkpt>
      <trkpt lat="59.844285" lon="17.564748">
        <ele>28.9769</ele>
        <time>2017-12-31T12:38:00Z</time>
      </trkpt>
      <trkpt lat="59.8441069" lon="17.5648057">
        <ele>28.4962</ele>
        <time>2017-12-31T12:38:07Z</time>
      </trkpt>
      <trkpt lat="59.8439264" lon="17.5648799">
        <ele>28.4962</ele>
        <time>2017-12-31T12:38:14Z</time>
      </trkpt>
      <trkpt lat="59.843751" lon="17.5649368">
        <ele>29.4575</ele>
        <time>2017-12-31T12:38:21Z</time>
      </trkpt>
      <trkpt lat="59.8436273" lon="17.5649823">
        <ele>28.9769</ele>
        <time>2017-12-31T12:38:26Z</time>
      </trkpt>
      <trkpt lat="59.8434785" lon="17.5650358">
        <ele>29.4575</ele>
        <time>2017-12-31T12:38:32Z</time>
      </trkpt>
      <trkpt lat="59.8433351" lon="17.5651077">
        <ele>29.9381</ele>
        <time>2017-12-31T12:38:38Z</time>
      </trkpt>
      <trkpt lat="59.8431613" lon="17.5651984">
        <ele>29.9381</ele>
        <time>2017-12-31T12:38:45Z</time>
      </trkpt>
      <trkpt lat="59.843033" lon="17.5652532">
        <ele>29.4575</ele>
        <time>2017-12-31T12:38:50Z</time>
      </trkpt>
      <trkpt lat="59.8429098" lon="17.5653066">
        <ele>29.4575</ele>
        <time>2017-12-31T12:38:55Z</time>
      </trkpt>
      <trkpt lat="59.8427534" lon="17.5653909">
        <ele>28.4962</ele>
        <time>2017-12-31T12:39:01Z</time>
      </trkpt>
      <trkpt lat="59.842644" lon="17.5654641">
        <ele>29.9381</ele>
        <time>2017-12-31T12:39:06Z</time>
      </trkpt>
      <trkpt lat="59.8425816" lon="17.5656421">
        <ele>30.4188</ele>
        <time>2017-12-31T12:39:12Z</time>
      </trkpt>
      <trkpt lat="59.8426098" lon="17.5657791">
        <ele>29.4575</ele>
        <time>2017-12-31T12:39:17Z</time>
      </trkpt>
      <trkpt lat="59.8426548" lon="17.5658967">
        <ele>27.5349</ele>
        <time>2017-12-31T12:39:21Z</time>
      </trkpt>
      <trkpt lat="59.8427066" lon="17.566135">
        <ele>28.0155</ele>
        <time>2017-12-31T12:39:27Z</time>
      </trkpt>
      <trkpt lat="59.8427543" lon="17.5663344">
        <ele>27.5349</ele>
        <time>2017-12-31T12:39:32Z</time>
      </trkpt>
      <trkpt lat="59.8428175" lon="17.5664844">
        <ele>27.0543</ele>
        <time>2017-12-31T12:39:37Z</time>
      </trkpt>
      <trkpt lat="59.8429057" lon="17.5666716">
        <ele>26.5736</ele>
        <time>2017-12-31T12:39:44Z</time>
      </trkpt>
      <trkpt lat="59.8429202" lon="17.566798">
        <ele>26.5736</ele>
        <time>2017-12-31T12:39:47Z</time>
      </trkpt>
      <trkpt lat="59.8428277" lon="17.56692">
        <ele>26.5736</ele>
        <time>2017-12-31T12:39:53Z</time>
      </trkpt>
      <trkpt lat="59.8426813" lon="17.5668885">
        <ele>28.0155</ele>
        <time>2017-12-31T12:40:00Z</time>
      </trkpt>
      <trkpt lat="59.8425752" lon="17.5670244">
        <ele>26.5736</ele>
        <time>2017-12-31T12:40:06Z</time>
      </trkpt>
      <trkpt lat="59.8425752" lon="17.5672926">
        <ele>26.0929</ele>
        <time>2017-12-31T12:40:12Z</time>
      </trkpt>
      <trkpt lat="59.8426236" lon="17.5675473">
        <ele>25.6123</ele>
        <time>2017-12-31T12:40:18Z</time>
      </trkpt>
      <trkpt lat="59.8426402" lon="17.5677832">
        <ele>26.5736</ele>
        <time>2017-12-31T12:40:23Z</time>
      </trkpt>
      <trkpt lat="59.8426241" lon="17.568033">
        <ele>27.5349</ele>
        <time>2017-12-31T12:40:28Z</time>
      </trkpt>
      <trkpt lat="59.842598" lon="17.5682976">
        <ele>28.4962</ele>
        <time>2017-12-31T12:40:34Z</time>
      </trkpt>
      <trkpt lat="59.8425614" lon="17.568612">
        <ele>27.5349</ele>
        <time>2017-12-31T12:40:41Z</time>
      </trkpt>
      <trkpt lat="59.8425223" lon="17.5688861">
        <ele>26.0929</ele>
        <time>2017-12-31T12:40:47Z</time>
      </trkpt>
      <trkpt lat="59.8424927" lon="17.5691637">
        <ele>25.6123</ele>
        <time>2017-12-31T12:40:53Z</time>
      </trkpt>
      <trkpt lat="59.8424751" lon="17.5694444">
        <ele>24.1703</ele>
        <time>2017-12-31T12:40:59Z</time>
      </trkpt>
      <trkpt lat="59.8424967" lon="17.569677">
        <ele>23.209</ele>
        <time>2017-12-31T12:41:04Z</time>
      </trkpt>
      <trkpt lat="59.8425191" lon="17.569917">
        <ele>22.7283</ele>
        <time>2017-12-31T12:41:09Z</time>
      </trkpt>
      <trkpt lat="59.8425615" lon="17.5702332">
        <ele>21.2864</ele>
        <time>2017-12-31T12:41:16Z</time>
      </trkpt>
      <trkpt lat="59.8426321" lon="17.5705208">
        <ele>19.8444</ele>
        <time>2017-12-31T12:41:23Z</time>
      </trkpt>
      <trkpt lat="59.8426824" lon="17.5707835">
        <ele>19.3638</ele>
        <time>2017-12-31T12:41:29Z</time>
      </trkpt>
      <trkpt lat="59.8427134" lon="17.5711283">
        <ele>21.767</ele>
        <time>2017-12-31T12:41:36Z</time>
      </trkpt>
      <trkpt lat="59.8427073" lon="17.5713885">
        <ele>21.767</ele>
        <time>2017-12-31T12:41:41Z</time>
      </trkpt>
      <trkpt lat="59.8426884" lon="17.571704">
        <ele>23.209</ele>
        <time>2017-12-31T12:41:48Z</time>
      </trkpt>
      <trkpt lat="59.8426847" lon="17.5719833">
        <ele>22.7283</ele>
        <time>2017-12-31T12:41:54Z</time>
      </trkpt>
      <trkpt lat="59.8426849" lon="17.5720268">
        <ele>21.767</ele>
        <time>2017-12-31T12:41:55Z</time>
      </trkpt>
      <trkpt lat="59.8427738" lon="17.5722758">
        <ele>20.8057</ele>
        <time>2017-12-31T12:42:02Z</time>
      </trkpt>
      <trkpt lat="59.842842" lon="17.5724297">
        <ele>18.4023</ele>
        <time>2017-12-31T12:42:07Z</time>
      </trkpt>
      <trkpt lat="59.8429373" lon="17.5726193">
        <ele>18.4023</ele>
        <time>2017-12-31T12:42:13Z</time>
      </trkpt>
      <trkpt lat="59.8430299" lon="17.572885">
        <ele>18.8831</ele>
        <time>2017-12-31T12:42:20Z</time>
      </trkpt>
      <trkpt lat="59.843092" lon="17.5731379">
        <ele>19.8444</ele>
        <time>2017-12-31T12:42:26Z</time>
      </trkpt>
      <trkpt lat="59.843103" lon="17.5734308">
        <ele>19.8444</ele>
        <time>2017-12-31T12:42:32Z</time>
      </trkpt>
      <trkpt lat="59.8430889" lon="17.5737776">
        <ele>21.2864</ele>
        <time>2017-12-31T12:42:39Z</time>
      </trkpt>
      <trkpt lat="59.8430756" lon="17.5741182">
        <ele>21.2864</ele>
        <time>2017-12-31T12:42:46Z</time>
      </trkpt>
      <trkpt lat="59.8430637" lon="17.5744551">
        <ele>20.8057</ele>
        <time>2017-12-31T12:42:53Z</time>
      </trkpt>
      <trkpt lat="59.8430635" lon="17.5747959">
        <ele>22.2476</ele>
        <time>2017-12-31T12:43:00Z</time>
      </trkpt>
      <trkpt lat="59.8431221" lon="17.5750337">
        <ele>22.7283</ele>
        <time>2017-12-31T12:43:06Z</time>
      </trkpt>
      <trkpt lat="59.8432131" lon="17.5751154">
        <ele>21.767</ele>
        <time>2017-12-31T12:43:11Z</time>
      </trkpt>
      <trkpt lat="59.8433613" lon="17.5751465">
        <ele>21.2864</ele>
        <time>2017-12-31T12:43:18Z</time>
      </trkpt>
      <trkpt lat="59.8434904" lon="17.5751461">
        <ele>20.8057</ele>
        <time>2017-12-31T12:43:24Z</time>
      </trkpt>
      <trkpt lat="59.8435935" lon="17.5751066">
        <ele>19.8444</ele>
        <time>2017-12-31T12:43:29Z</time>
      </trkpt>
      <trkpt lat="59.8437142" lon="17.5750481">
        <ele>17.9218</ele>
        <time>2017-12-31T12:43:35Z</time>
      </trkpt>
      <trkpt lat="59.8437573" lon="17.5750494">
        <ele>17.9218</ele>
        <time>2017-12-31T12:43:37Z</time>
      </trkpt>
      <trkpt lat="59.8437876" lon="17.5752424">
        <ele>17.9218</ele>
        <time>2017-12-31T12:43:42Z</time>
      </trkpt>
      <trkpt lat="59.8437089" lon="17.5754684">
        <ele>18.8831</ele>
        <time>2017-12-31T12:43:48Z</time>
      </trkpt>
      <trkpt lat="59.8436964" lon="17.5756927">
        <ele>18.8831</ele>
        <time>2017-12-31T12:43:53Z</time>
      </trkpt>
      <trkpt lat="59.8437635" lon="17.5759232">
        <ele>18.4023</ele>
        <time>2017-12-31T12:43:59Z</time>
      </trkpt>
      <trkpt lat="59.8438495" lon="17.5762142">
        <ele>17.4412</ele>
        <time>2017-12-31T12:44:06Z</time>
      </trkpt>
      <trkpt lat="59.8439132" lon="17.5765997">
        <ele>15.999</ele>
        <time>2017-12-31T12:44:14Z</time>
      </trkpt>
      <trkpt lat="59.8439713" lon="17.5769792">
        <ele>14.557</ele>
        <time>2017-12-31T12:44:22Z</time>
      </trkpt>
      <trkpt lat="59.844026" lon="17.5772662">
        <ele>15.999</ele>
        <time>2017-12-31T12:44:28Z</time>
      </trkpt>
      <trkpt lat="59.8440732" lon="17.5776497">
        <ele>16.4797</ele>
        <time>2017-12-31T12:44:36Z</time>
      </trkpt>
      <trkpt lat="59.8440831" lon="17.577942">
        <ele>18.4023</ele>
        <time>2017-12-31T12:44:42Z</time>
      </trkpt>
      <trkpt lat="59.8440686" lon="17.5782848">
        <ele>19.3638</ele>
        <time>2017-12-31T12:44:49Z</time>
      </trkpt>
      <trkpt lat="59.8440515" lon="17.5785609">
        <ele>20.8057</ele>
        <time>2017-12-31T12:44:55Z</time>
      </trkpt>
      <trkpt lat="59.8440762" lon="17.578795">
        <ele>19.8444</ele>
        <time>2017-12-31T12:45:00Z</time>
      </trkpt>
      <trkpt lat="59.8440971" lon="17.5788707">
        <ele>18.8831</ele>
        <time>2017-12-31T12:45:02Z</time>
      </trkpt>
      <trkpt lat="59.8442389" lon="17.5789773">
        <ele>16.4797</ele>
        <time>2017-12-31T12:45:09Z</time>
      </trkpt>
      <trkpt lat="59.8443928" lon="17.5789399">
        <ele>15.5184</ele>
        <time>2017-12-31T12:45:16Z</time>
      </trkpt>
      <trkpt lat="59.8445035" lon="17.5788826">
        <ele>14.557</ele>
        <time>2017-12-31T12:45:21Z</time>
      </trkpt>
      <trkpt lat="59.8446345" lon="17.5787816">
        <ele>14.557</ele>
        <time>2017-12-31T12:45:27Z</time>
      </trkpt>
      <trkpt lat="59.8447653" lon="17.5787489">
        <ele>13.5958</ele>
        <time>2017-12-31T12:45:33Z</time>
      </trkpt>
      <trkpt lat="59.8449005" lon="17.5788409">
        <ele>13.1151</ele>
        <time>2017-12-31T12:45:39Z</time>
      </trkpt>
      <trkpt lat="59.845046" lon="17.5790155">
        <ele>13.1151</ele>
        <time>2017-12-31T12:45:46Z</time>
      </trkpt>
      <trkpt lat="59.8451916" lon="17.5792068">
        <ele>14.0764</ele>
        <time>2017-12-31T12:45:53Z</time>
      </trkpt>
      <trkpt lat="59.8452973" lon="17.5793466">
        <ele>15.0377</ele>
        <time>2017-12-31T12:45:58Z</time>
      </trkpt>
      <trkpt lat="59.8454086" lon="17.5795332">
        <ele>16.4797</ele>
        <time>2017-12-31T12:46:04Z</time>
      </trkpt>
      <trkpt lat="59.8454946" lon="17.5797703">
        <ele>17.4412</ele>
        <time>2017-12-31T12:46:10Z</time>
      </trkpt>
      <trkpt lat="59.8455442" lon="17.5800958">
        <ele>16.9604</ele>
        <time>2017-12-31T12:46:17Z</time>
      </trkpt>
      <trkpt lat="59.8455861" lon="17.5804242">
        <ele>15.0377</ele>
        <time>2017-12-31T12:46:24Z</time>
      </trkpt>
      <trkpt lat="59.8456489" lon="17.5807257">
        <ele>15.999</ele>
        <time>2017-12-31T12:46:31Z</time>
      </trkpt>
      <trkpt lat="59.8457257" lon="17.5809665">
        <ele>15.999</ele>
        <time>2017-12-31T12:46:37Z</time>
      </trkpt>
      <trkpt lat="59.8457636" lon="17.5811913">
        <ele>15.999</ele>
        <time>2017-12-31T12:46:42Z</time>
      </trkpt>
      <trkpt lat="59.8457847" lon="17.5814988">
        <ele>16.4797</ele>
        <time>2017-12-31T12:46:48Z</time>
      </trkpt>
      <trkpt lat="59.8457638" lon="17.5819057">
        <ele>15.0377</ele>
        <time>2017-12-31T12:46:56Z</time>
      </trkpt>
      <trkpt lat="59.8457597" lon="17.5822521">
        <ele>16.4797</ele>
        <time>2017-12-31T12:47:03Z</time>
      </trkpt>
      <trkpt lat="59.8457246" lon="17.5825838">
        <ele>18.4023</ele>
        <time>2017-12-31T12:47:10Z</time>
      </trkpt>
      <trkpt lat="59.8456288" lon="17.5828749">
        <ele>19.3638</ele>
        <time>2017-12-31T12:47:17Z</time>
      </trkpt>
      <trkpt lat="59.8455748" lon="17.5830454">
        <ele>18.4023</ele>
        <time>2017-12-31T12:47:21Z</time>
      </trkpt>
      <trkpt lat="59.8455608" lon="17.5833433">
        <ele>13.5958</ele>
        <time>2017-12-31T12:47:27Z</time>
      </trkpt>
      <trkpt lat="59.8455868" lon="17.5834146">
        <ele>13.5958</ele>
        <time>2017-12-31T12:47:29Z</time>
      </trkpt>
      <trkpt lat="59.8456626" lon="17.5834804">
        <ele>11.6732</ele>
        <time>2017-12-31T12:47:33Z</time>
      </trkpt>
      <trkpt lat="59.8458086" lon="17.5835462">
        <ele>12.1538</ele>
        <time>2017-12-31T12:47:41Z</time>
      </trkpt>
      <trkpt lat="59.845921" lon="17.5836908">
        <ele>12.6344</ele>
        <time>2017-12-31T12:47:47Z</time>
      </trkpt>
      <trkpt lat="59.8460262" lon="17.5838928">
        <ele>12.6344</ele>
        <time>2017-12-31T12:47:53Z</time>
      </trkpt>
      <trkpt lat="59.8461401" lon="17.5840512">
        <ele>11.6732</ele>
        <time>2017-12-31T12:47:59Z</time>
      </trkpt>
      <trkpt lat="59.8462688" lon="17.584188">
        <ele>10.2312</ele>
        <time>2017-12-31T12:48:05Z</time>
      </trkpt>
      <trkpt lat="59.8464214" lon="17.5843386">
        <ele>8.78918</ele>
        <time>2017-12-31T12:48:12Z</time>
      </trkpt>
      <trkpt lat="59.846484" lon="17.5843925">
        <ele>9.2699</ele>
        <time>2017-12-31T12:48:15Z</time>
      </trkpt>
      <trkpt lat="59.8464943" lon="17.5845528">
        <ele>9.2699</ele>
        <time>2017-12-31T12:48:19Z</time>
      </trkpt>
      <trkpt lat="59.8464498" lon="17.5848665">
        <ele>11.6732</ele>
        <time>2017-12-31T12:48:26Z</time>
      </trkpt>
      <trkpt lat="59.8464393" lon="17.5851904">
        <ele>14.0764</ele>
        <time>2017-12-31T12:48:33Z</time>
      </trkpt>
      <trkpt lat="59.8464101" lon="17.585454">
        <ele>17.9218</ele>
        <time>2017-12-31T12:48:39Z</time>
      </trkpt>
      <trkpt lat="59.8463272" lon="17.58573">
        <ele>19.8444</ele>
        <time>2017-12-31T12:48:46Z</time>
      </trkpt>
      <trkpt lat="59.8462015" lon="17.5859629">
        <ele>20.325</ele>
        <time>2017-12-31T12:48:53Z</time>
      </trkpt>
      <trkpt lat="59.8460426" lon="17.5861395">
        <ele>19.3638</ele>
        <time>2017-12-31T12:49:00Z</time>
      </trkpt>
      <trkpt lat="59.8459254" lon="17.5862467">
        <ele>18.4023</ele>
        <time>2017-12-31T12:49:05Z</time>
      </trkpt>
      <trkpt lat="59.8457749" lon="17.5863704">
        <ele>18.4023</ele>
        <time>2017-12-31T12:49:11Z</time>
      </trkpt>
      <trkpt lat="59.8456588" lon="17.5864848">
        <ele>17.4412</ele>
        <time>2017-12-31T12:49:16Z</time>
      </trkpt>
      <trkpt lat="59.8455122" lon="17.5866211">
        <ele>17.4412</ele>
        <time>2017-12-31T12:49:22Z</time>
      </trkpt>
      <trkpt lat="59.8453645" lon="17.5867135">
        <ele>15.5184</ele>
        <time>2017-12-31T12:49:28Z</time>
      </trkpt>
      <trkpt lat="59.8452059" lon="17.5867677">
        <ele>15.0377</ele>
        <time>2017-12-31T12:49:34Z</time>
      </trkpt>
      <trkpt lat="59.8450548" lon="17.5867904">
        <ele>15.5184</ele>
        <time>2017-12-31T12:49:40Z</time>
      </trkpt>
      <trkpt lat="59.8449084" lon="17.5868963">
        <ele>11.6732</ele>
        <time>2017-12-31T12:49:46Z</time>
      </trkpt>
      <trkpt lat="59.8448455" lon="17.5870664">
        <ele>11.6732</ele>
        <time>2017-12-31T12:49:50Z</time>
      </trkpt>
      <trkpt lat="59.8448931" lon="17.5873322">
        <ele>14.557</ele>
        <time>2017-12-31T12:49:56Z</time>
      </trkpt>
      <trkpt lat="59.8449229" lon="17.587491">
        <ele>14.0764</ele>
        <time>2017-12-31T12:49:59Z</time>
      </trkpt>
      <trkpt lat="59.8449921" lon="17.5878431">
        <ele>14.0764</ele>
        <time>2017-12-31T12:50:06Z</time>
      </trkpt>
      <trkpt lat="59.8450445" lon="17.5881973">
        <ele>12.6344</ele>
        <time>2017-12-31T12:50:13Z</time>
      </trkpt>
      <trkpt lat="59.845102" lon="17.5884939">
        <ele>11.6732</ele>
        <time>2017-12-31T12:50:19Z</time>
      </trkpt>
      <trkpt lat="59.8451543" lon="17.5887424">
        <ele>12.1538</ele>
        <time>2017-12-31T12:50:24Z</time>
      </trkpt>
      <trkpt lat="59.8452237" lon="17.5890361">
        <ele>15.5184</ele>
        <time>2017-12-31T12:50:30Z</time>
      </trkpt>
      <trkpt lat="59.8452832" lon="17.5893826">
        <ele>15.5184</ele>
        <time>2017-12-31T12:50:37Z</time>
      </trkpt>
      <trkpt lat="59.8453375" lon="17.589748">
        <ele>14.0764</ele>
        <time>2017-12-31T12:50:44Z</time>
      </trkpt>
      <trkpt lat="59.8453984" lon="17.5900807">
        <ele>15.0377</ele>
        <time>2017-12-31T12:50:51Z</time>
      </trkpt>
      <trkpt lat="59.8454644" lon="17.5904156">
        <ele>17.4412</ele>
        <time>2017-12-31T12:50:58Z</time>
      </trkpt>
      <trkpt lat="59.8455222" lon="17.5907585">
        <ele>18.4023</ele>
        <time>2017-12-31T12:51:05Z</time>
      </trkpt>
      <trkpt lat="59.8455787" lon="17.5910548">
        <ele>19.8444</ele>
        <time>2017-12-31T12:51:11Z</time>
      </trkpt>
      <trkpt lat="59.8456328" lon="17.5913287">
        <ele>23.6896</ele>
        <time>2017-12-31T12:51:16Z</time>
      </trkpt>
      <trkpt lat="59.8457224" lon="17.5918302">
        <ele>28.4962</ele>
        <time>2017-12-31T12:51:25Z</time>
      </trkpt>
      <trkpt lat="59.8457743" lon="17.5921929">
        <ele>28.4962</ele>
        <time>2017-12-31T12:51:32Z</time>
      </trkpt>
      <trkpt lat="59.8457985" lon="17.5924943">
        <ele>28.0155</ele>
        <time>2017-12-31T12:51:38Z</time>
      </trkpt>
      <trkpt lat="59.8458262" lon="17.5927159">
        <ele>27.0543</ele>
        <time>2017-12-31T12:51:42Z</time>
      </trkpt>
      <trkpt lat="59.8458558" lon="17.5930334">
        <ele>25.1317</ele>
        <time>2017-12-31T12:51:48Z</time>
      </trkpt>
      <trkpt lat="59.8458957" lon="17.5933029">
        <ele>26.0929</ele>
        <time>2017-12-31T12:51:53Z</time>
      </trkpt>
      <trkpt lat="59.8459257" lon="17.5935055">
        <ele>25.6123</ele>
        <time>2017-12-31T12:51:57Z</time>
      </trkpt>
      <trkpt lat="59.8459557" lon="17.5937738">
        <ele>24.651</ele>
        <time>2017-12-31T12:52:02Z</time>
      </trkpt>
      <trkpt lat="59.8459871" lon="17.5940933">
        <ele>24.1703</ele>
        <time>2017-12-31T12:52:08Z</time>
      </trkpt>
      <trkpt lat="59.8460235" lon="17.5944736">
        <ele>22.2476</ele>
        <time>2017-12-31T12:52:15Z</time>
      </trkpt>
      <trkpt lat="59.8460572" lon="17.5947425">
        <ele>21.2864</ele>
        <time>2017-12-31T12:52:20Z</time>
      </trkpt>
      <trkpt lat="59.846098" lon="17.5950612">
        <ele>21.2864</ele>
        <time>2017-12-31T12:52:26Z</time>
      </trkpt>
      <trkpt lat="59.8461394" lon="17.5953339">
        <ele>22.2476</ele>
        <time>2017-12-31T12:52:31Z</time>
      </trkpt>
      <trkpt lat="59.846145" lon="17.5953823">
        <ele>22.2476</ele>
        <time>2017-12-31T12:52:32Z</time>
      </trkpt>
      <trkpt lat="59.8461701" lon="17.5956022">
        <ele>20.8057</ele>
        <time>2017-12-31T12:52:36Z</time>
      </trkpt>
      <trkpt lat="59.8462334" lon="17.5960749">
        <ele>20.325</ele>
        <time>2017-12-31T12:52:45Z</time>
      </trkpt>
      <trkpt lat="59.8462695" lon="17.5964732">
        <ele>18.4023</ele>
        <time>2017-12-31T12:52:52Z</time>
      </trkpt>
      <trkpt lat="59.8463034" lon="17.5968082">
        <ele>16.4797</ele>
        <time>2017-12-31T12:52:58Z</time>
      </trkpt>
      <trkpt lat="59.8463357" lon="17.597105">
        <ele>14.557</ele>
        <time>2017-12-31T12:53:03Z</time>
      </trkpt>
      <trkpt lat="59.8463807" lon="17.5974407">
        <ele>15.5184</ele>
        <time>2017-12-31T12:53:09Z</time>
      </trkpt>
      <trkpt lat="59.8464383" lon="17.5977905">
        <ele>17.9218</ele>
        <time>2017-12-31T12:53:16Z</time>
      </trkpt>
      <trkpt lat="59.8464657" lon="17.5980448">
        <ele>16.9604</ele>
        <time>2017-12-31T12:53:21Z</time>
      </trkpt>
      <trkpt lat="59.8465102" lon="17.598323">
        <ele>18.8831</ele>
        <time>2017-12-31T12:53:27Z</time>
      </trkpt>
      <trkpt lat="59.8465444" lon="17.5986209">
        <ele>17.9218</ele>
        <time>2017-12-31T12:53:33Z</time>
      </trkpt>
      <trkpt lat="59.8465716" lon="17.5989775">
        <ele>15.5184</ele>
        <time>2017-12-31T12:53:40Z</time>
      </trkpt>
      <trkpt lat="59.8466134" lon="17.5992682">
        <ele>15.999</ele>
        <time>2017-12-31T12:53:46Z</time>
      </trkpt>
      <trkpt lat="59.8466487" lon="17.5995549">
        <ele>15.0377</ele>
        <time>2017-12-31T12:53:52Z</time>
      </trkpt>
      <trkpt lat="59.8466835" lon="17.5998618">
        <ele>15.0377</ele>
        <time>2017-12-31T12:53:58Z</time>
      </trkpt>
      <trkpt lat="59.8467248" lon="17.6001618">
        <ele>16.9604</ele>
        <time>2017-12-31T12:54:04Z</time>
      </trkpt>
      <trkpt lat="59.8467529" lon="17.6004088">
        <ele>17.9218</ele>
        <time>2017-12-31T12:54:09Z</time>
      </trkpt>
      <trkpt lat="59.8467794" lon="17.6006618">
        <ele>17.4412</ele>
        <time>2017-12-31T12:54:14Z</time>
      </trkpt>
      <trkpt lat="59.8468223" lon="17.6010545">
        <ele>15.5184</ele>
        <time>2017-12-31T12:54:22Z</time>
      </trkpt>
      <trkpt lat="59.846872" lon="17.6013927">
        <ele>15.999</ele>
        <time>2017-12-31T12:54:29Z</time>
      </trkpt>
      <trkpt lat="59.8469319" lon="17.6017719">
        <ele>15.999</ele>
        <time>2017-12-31T12:54:37Z</time>
      </trkpt>
      <trkpt lat="59.8469814" lon="17.6020547">
        <ele>15.5184</ele>
        <time>2017-12-31T12:54:43Z</time>
      </trkpt>
      <trkpt lat="59.8470399" lon="17.6023629">
        <ele>14.0764</ele>
        <time>2017-12-31T12:54:50Z</time>
      </trkpt>
      <trkpt lat="59.8470798" lon="17.6025931">
        <ele>14.0764</ele>
        <time>2017-12-31T12:54:55Z</time>
      </trkpt>
      <trkpt lat="59.8471388" lon="17.6028631">
        <ele>14.0764</ele>
        <time>2017-12-31T12:55:01Z</time>
      </trkpt>
      <trkpt lat="59.8472055" lon="17.603142">
        <ele>14.0764</ele>
        <time>2017-12-31T12:55:07Z</time>
      </trkpt>
      <trkpt lat="59.8472956" lon="17.6034441">
        <ele>15.0377</ele>
        <time>2017-12-31T12:55:14Z</time>
      </trkpt>
      <trkpt lat="59.847376" lon="17.6037078">
        <ele>14.557</ele>
        <time>2017-12-31T12:55:20Z</time>
      </trkpt>
      <trkpt lat="59.8474774" lon="17.6040077">
        <ele>15.0377</ele>
        <time>2017-12-31T12:55:27Z</time>
      </trkpt>
      <trkpt lat="59.8475904" lon="17.6042906">
        <ele>15.999</ele>
        <time>2017-12-31T12:55:34Z</time>
      </trkpt>
      <trkpt lat="59.8476577" lon="17.604494">
        <ele>15.999</ele>
        <time>2017-12-31T12:55:39Z</time>
      </trkpt>
      <trkpt lat="59.8477608" lon="17.6047836">
        <ele>16.9604</ele>
        <time>2017-12-31T12:55:46Z</time>
      </trkpt>
      <trkpt lat="59.8478718" lon="17.6050279">
        <ele>16.4797</ele>
        <time>2017-12-31T12:55:53Z</time>
      </trkpt>
      <trkpt lat="59.8479615" lon="17.6052487">
        <ele>17.4412</ele>
        <time>2017-12-31T12:55:59Z</time>
      </trkpt>
      <trkpt lat="59.8480294" lon="17.6054078">
        <ele>18.8831</ele>
        <time>2017-12-31T12:56:04Z</time>
      </trkpt>
      <trkpt lat="59.8481546" lon="17.6056024">
        <ele>20.325</ele>
        <time>2017-12-31T12:56:10Z</time>
      </trkpt>
      <trkpt lat="59.8482544" lon="17.6057606">
        <ele>20.325</ele>
        <time>2017-12-31T12:56:15Z</time>
      </trkpt>
      <trkpt lat="59.848381" lon="17.605866">
        <ele>19.8444</ele>
        <time>2017-12-31T12:56:21Z</time>
      </trkpt>
      <trkpt lat="59.8484756" lon="17.6058907">
        <ele>20.8057</ele>
        <time>2017-12-31T12:56:25Z</time>
      </trkpt>
      <trkpt lat="59.8485193" lon="17.6059315">
        <ele>21.2864</ele>
        <time>2017-12-31T12:56:27Z</time>
      </trkpt>
      <trkpt lat="59.848596" lon="17.6061092">
        <ele>20.325</ele>
        <time>2017-12-31T12:56:32Z</time>
      </trkpt>
      <trkpt lat="59.8487181" lon="17.6062967">
        <ele>20.325</ele>
        <time>2017-12-31T12:56:38Z</time>
      </trkpt>
      <trkpt lat="59.8488684" lon="17.6064894">
        <ele>21.2864</ele>
        <time>2017-12-31T12:56:45Z</time>
      </trkpt>
      <trkpt lat="59.8489829" lon="17.6065386">
        <ele>21.2864</ele>
        <time>2017-12-31T12:56:50Z</time>
      </trkpt>
      <trkpt lat="59.8490761" lon="17.6064397">
        <ele>20.8057</ele>
        <time>2017-12-31T12:56:55Z</time>
      </trkpt>
      <trkpt lat="59.84916" lon="17.6063012">
        <ele>20.8057</ele>
        <time>2017-12-31T12:57:00Z</time>
      </trkpt>
      <trkpt lat="59.8492536" lon="17.6061423">
        <ele>22.2476</ele>
        <time>2017-12-31T12:57:05Z</time>
      </trkpt>
      <trkpt lat="59.849401" lon="17.6059434">
        <ele>24.1703</ele>
        <time>2017-12-31T12:57:12Z</time>
      </trkpt>
      <trkpt lat="59.8494986" lon="17.6058832">
        <ele>23.209</ele>
        <time>2017-12-31T12:57:17Z</time>
      </trkpt>
      <trkpt lat="59.8496024" lon="17.6058532">
        <ele>22.2476</ele>
        <time>2017-12-31T12:57:21Z</time>
      </trkpt>
      <trkpt lat="59.8497733" lon="17.6058414">
        <ele>22.2476</ele>
        <time>2017-12-31T12:57:28Z</time>
      </trkpt>
      <trkpt lat="59.8498945" lon="17.6057731">
        <ele>23.209</ele>
        <time>2017-12-31T12:57:33Z</time>
      </trkpt>
      <trkpt lat="59.8500097" lon="17.6055601">
        <ele>21.767</ele>
        <time>2017-12-31T12:57:39Z</time>
      </trkpt>
      <trkpt lat="59.8500938" lon="17.605376">
        <ele>22.2476</ele>
        <time>2017-12-31T12:57:44Z</time>
      </trkpt>
      <trkpt lat="59.8501666" lon="17.6051935">
        <ele>20.325</ele>
        <time>2017-12-31T12:57:49Z</time>
      </trkpt>
      <trkpt lat="59.850123" lon="17.6050395">
        <ele>21.2864</ele>
        <time>2017-12-31T12:57:54Z</time>
      </trkpt>
      <trkpt lat="59.8500123" lon="17.6049592">
        <ele>22.2476</ele>
        <time>2017-12-31T12:57:59Z</time>
      </trkpt>
      <trkpt lat="59.8498909" lon="17.6048167">
        <ele>22.7283</ele>
        <time>2017-12-31T12:58:05Z</time>
      </trkpt>
      <trkpt lat="59.8497654" lon="17.6046655">
        <ele>23.209</ele>
        <time>2017-12-31T12:58:11Z</time>
      </trkpt>
      <trkpt lat="59.8496402" lon="17.6045043">
        <ele>22.7283</ele>
        <time>2017-12-31T12:58:17Z</time>
      </trkpt>
      <trkpt lat="59.8495614" lon="17.6044029">
        <ele>23.209</ele>
        <time>2017-12-31T12:58:21Z</time>
      </trkpt>
      <trkpt lat="59.8495727" lon="17.6042594">
        <ele>24.1703</ele>
        <time>2017-12-31T12:58:24Z</time>
      </trkpt>
    </trkseg>
  </trk>
</gpx>